This is the latest recevied weather packets stored in our database for station/object K7AEL. If no packets are shown the sender has not sent any weather packets the latest 10 day(s).
| Time | Temp. | Humidity | Pressure | Rain* | Wind** | Luminosity | Snow |
|---|---|---|---|---|---|---|---|
| 1777664606 | 27.78° C | 23% | 1013.4 hPa | 0 mm | - | 738 W/m² | - |
| 1777664302 | 27.22° C | 23% | 1013.3 hPa | 0 mm | - | 738 W/m² | - |
| 1777664001 | 27.78° C | 22% | 1013.4 hPa | 0 mm | - | 743 W/m² | - |
| 1777663698 | 28.33° C | 22% | 1013.6 hPa | 0 mm | - | 745 W/m² | - |
| 1777663395 | 27.78° C | 24% | 1013.6 hPa | 0 mm | - | 742 W/m² | - |
| 1777663092 | 27.22° C | 25% | 1013.5 hPa | 0 mm | - | 743 W/m² | - |
| 1777662788 | 27.78° C | 23% | 1013.7 hPa | 0 mm | - | 744 W/m² | - |
| 1777662480 | 27.22° C | 25% | 1013.9 hPa | 0 mm | - | 744 W/m² | - |
| 1777662175 | 26.67° C | 25% | 1013.8 hPa | 0 mm | - | 743 W/m² | - |
| 1777661871 | 26.67° C | 25% | 1013.7 hPa | 0 mm | - | 743 W/m² | - |
| 1777661567 | 27.22° C | 25% | 1013.9 hPa | 0 mm | - | 741 W/m² | - |
| 1777661263 | 27.22° C | 24% | 1014 hPa | 0 mm | - | 739 W/m² | - |
| 1777660959 | 26.67° C | 25% | 1014 hPa | 0 mm | - | 738 W/m² | - |
| 1777660655 | 26.67° C | 26% | 1014.2 hPa | 0 mm | - | 735 W/m² | - |
| 1777660352 | 27.22° C | 27% | 1014.3 hPa | 0 mm | - | 729 W/m² | - |
| 1777660048 | 26.11° C | 28% | 1014.2 hPa | 0 mm | - | 727 W/m² | - |
| 1777659746 | 26.67° C | 28% | 1014.3 hPa | 0 mm | - | 724 W/m² | - |
| 1777659442 | 26.67° C | 28% | 1014.3 hPa | 0 mm | - | 718 W/m² | - |
| 1777659140 | 26.11° C | 27% | 1014.4 hPa | 0 mm | - | 714 W/m² | - |
| 1777658838 | 26.67° C | 28% | 1014.4 hPa | 0 mm | - | 707 W/m² | - |
| 1777658533 | 26.11° C | 28% | 1014.4 hPa | 0 mm | - | 700 W/m² | - |
| 1777658230 | 26.11° C | 29% | 1014.7 hPa | 0 mm | - | 696 W/m² | - |
| 1777657927 | 26.11° C | 30% | 1014.7 hPa | 0 mm | - | 687 W/m² | - |
| 1777657623 | 25.56° C | 31% | 1014.4 hPa | 0 mm | - | 677 W/m² | - |
| 1777657321 | 26.11° C | 30% | 1014.8 hPa | 0 mm | - | 671 W/m² | - |
* Rain latest hour (hover to see other rain measurements)
** Current wind speed in m/s (hover to see current wind gust speed)